My webcam  My webcam


Besök vår andra vädersida:

Template documentation
and downloads

And another site



Nearby METAR Reports

   
ESOE - Orebro (private), Sweden
Distance from station: SSV 25 km
Updated: 28-05-2020 10:20
Klart  
Klart  
   Vind: Nord 3.6 m/s
Vind: Nord 3.6 m/s
Temperature: 16°C
Daggpunkt: 2°C
Luftfuktighet: 39%
Barometer: 1030 hPa
Moln: Klart
Visibility: Mer än 10 km
Cloud details: Klart
ESOE 280820Z AUTO 36007KT 9999 NCD 16/02 Q1030
ESSP - Norrkoping/Kungs, Sweden
Distance from station: SO 114 km
Updated: 28-05-2020 10:20
Klart  
Klart  
   Vind: ONO 2.6 m/s
Vind: ONO 2.6 m/s
Temperature: 15°C
Daggpunkt: 4°C
Luftfuktighet: 48%
Barometer: 1030 hPa
Visibility: Mer än 10 km
Cloud details: Klart
ESSP 280820Z 07005KT 030V090 CAVOK 15/04 Q1030
ESSB - Stockholm/Bromma, Sweden
Distance from station: O 156 km
Updated: 28-05-2020 10:20
Klart  
Klart  
   Vind: Nord 3.1 m/s
Vind: Nord 3.1 m/s
Temperature: 13°C
Daggpunkt: 4°C
Luftfuktighet: 55%
Barometer: 1029 hPa
Visibility: Mer än 10 km
Cloud details: Klart
ESSB 280820Z 35006KT 310V030 CAVOK 13/04 Q1029
ESSV - Visby Airport, Sweden
Distance from station: SO 269 km
Updated: 28-05-2020 10:20
Klart  
Klart  
   Vind: Nord 7.2 m/s
Vind: Nord 7.2 m/s
Temperature: 13°C
Daggpunkt: 6°C
Luftfuktighet: 63%
Barometer: 1029 hPa
Visibility: Mer än 10 km
Cloud details: Klart
ESSV 280820Z 35014KT CAVOK 13/06 Q1029
ESNZ - Ostersund/Froson, Sweden
Distance from station: SSV 1 km
Updated: 28-05-2020 10:20
Delvis molnigt  
Delvis molnigt  
   Vind: Väst 5.7 m/s
Vind: Väst 5.7 m/s
Temperature: 6°C
Wind Chill: 2°C
Daggpunkt: 2°C
Luftfuktighet: 76%
Barometer: 1029 hPa
Moln: Delvis molnigt
Visibility: Mer än 10 km
Cloud details: Delvis molnigt 2500 ft
ESNZ 280820Z 27011KT 9999 SCT025 06/02 Q1029
ESPA - Kallax/Lulea (af, Sweden
Distance from station: SSO 7 km
Updated: 28-05-2020 10:20
Klart  
Klart  
   Vind: Väst 4.1 m/s
Vind: Väst 4.1 m/s
Temperature: 13°C
Daggpunkt: -1°C
Luftfuktighet: 38%
Barometer: 1021 hPa
Visibility: Mer än 10 km
Cloud details: Klart
ESPA 280820Z 28008KT 230V330 CAVOK 13/M01 Q1021

Script developed by  Saratoga-weather.org Adapted for the template by  Weerstation Leuven